Time;durP1;ratioP1;P1;durP2;ratioP2;P2;SDS_P1;SDS_P2;PMS_P1;PMS_P2;Temp;Humidity;BMP_temperature;BMP_pressure;BME280_temperature;BME280_humidity;BME280_pressure;Samples;Min_cycle;Max_cycle;Signal;HPM_P1;HPM_P2
2022/06/20 00:00:30;;;;;;;2.50;1.75;;;18.60;99.40;;;;;;4198243;28;20051;-64
2022/06/20 00:02:33;;;;;;;1.58;1.33;;;18.60;99.30;;;;;;4195107;28;20048;-65
2022/06/20 00:04:34;;;;;;;2.58;1.60;;;18.50;99.50;;;;;;4191624;28;20028;-64
2022/06/20 00:06:38;;;;;;;4.60;2.13;;;18.50;99.70;;;;;;4192845;28;20078;-66
2022/06/20 00:08:40;;;;;;;2.42;1.55;;;18.50;99.80;;;;;;4192354;28;20058;-65
2022/06/20 00:10:43;;;;;;;2.28;1.58;;;18.50;99.90;;;;;;4194953;28;20079;-64
2022/06/20 00:12:45;;;;;;;2.40;1.55;;;18.50;99.90;;;;;;4208284;28;20020;-63
2022/06/20 00:14:50;;;;;;;2.70;2.08;;;18.40;99.90;;;;;;4209312;28;20429;-65
2022/06/20 00:16:51;;;;;;;1.88;1.77;;;18.40;99.90;;;;;;4206200;28;20032;-63
2022/06/20 00:18:53;;;;;;;2.67;1.30;;;18.40;99.90;;;;;;4209010;28;20109;-63
2022/06/20 00:20:54;;;;;;;1.50;1.38;;;18.30;99.90;;;;;;4206053;28;20539;-63
2022/06/20 00:22:55;;;;;;;1.95;1.75;;;18.30;99.90;;;;;;4208574;28;20048;-64
2022/06/20 00:24:57;;;;;;;3.03;1.60;;;18.20;99.90;;;;;;4206337;28;20024;-63
2022/06/20 00:26:58;;;;;;;2.03;1.85;;;18.20;99.90;;;;;;4195011;28;20641;-63
2022/06/20 00:29:01;;;;;;;2.28;1.65;;;18.20;99.90;;;;;;4202208;28;20047;-64
2022/06/20 00:31:03;;;;;;;3.00;1.88;;;18.20;99.90;;;;;;4207467;28;20043;-64
2022/06/20 00:33:04;;;;;;;3.50;1.88;;;18.10;99.90;;;;;;4208671;28;20044;-63
2022/06/20 00:35:07;;;;;;;2.50;2.22;;;18.10;99.90;;;;;;4207388;28;20040;-63
2022/06/20 00:37:19;;;;;;;2.95;1.35;;;18.00;99.90;;;;;;4207128;28;20109;-63
2022/06/20 00:39:21;;;;;;;2.47;1.60;;;18.00;99.90;;;;;;4207664;28;20065;-66
2022/06/20 00:41:29;;;;;;;2.42;1.77;;;18.00;99.90;;;;;;4208676;28;20097;-63
2022/06/20 00:43:40;;;;;;;1.75;1.60;;;17.90;99.90;;;;;;4205277;28;20101;-67
2022/06/20 00:45:47;;;;;;;3.38;1.70;;;17.80;99.90;;;;;;4196496;28;20536;-63
2022/06/20 00:47:50;;;;;;;2.47;2.15;;;17.80;99.90;;;;;;4190655;28;20086;-62
2022/06/20 00:49:54;;;;;;;2.13;1.48;;;17.70;99.90;;;;;;4190825;28;20033;-63
2022/06/20 00:52:20;;;;;;;3.45;1.52;;;17.70;99.90;;;;;;4191751;28;20075;-66
2022/06/20 00:54:29;;;;;;;3.78;1.65;;;17.60;99.90;;;;;;4192941;28;20102;-63
2022/06/20 00:56:46;;;;;;;1.88;1.77;;;17.50;99.90;;;;;;4176587;28;20477;-64
2022/06/20 00:58:55;;;;;;;2.17;1.95;;;17.50;99.90;;;;;;4199009;28;20492;-63
2022/06/20 01:00:57;;;;;;;2.90;2.28;;;17.40;99.90;;;;;;4190528;28;20077;-64
2022/06/20 01:03:06;;;;;;;2.92;2.38;;;17.40;99.90;;;;;;4192226;28;20121;-63
2022/06/20 01:05:15;;;;;;;1.88;1.77;;;17.30;99.90;;;;;;4194910;28;20032;-63
2022/06/20 01:07:24;;;;;;;2.38;1.67;;;17.30;99.90;;;;;;4195841;28;20078;-63
2022/06/20 01:09:33;;;;;;;3.10;2.10;;;17.30;99.90;;;;;;4195089;28;20090;-63
2022/06/20 01:11:56;;;;;;;2.45;1.58;;;17.20;99.90;;;;;;4195571;28;20043;-63
2022/06/20 01:13:57;;;;;;;3.10;1.98;;;17.20;99.90;;;;;;4195532;28;20565;-64
2022/06/20 01:16:06;;;;;;;1.75;1.60;;;17.20;99.90;;;;;;4193314;28;20037;-67
2022/06/20 01:18:25;;;;;;;3.25;1.80;;;17.20;99.90;;;;;;4202839;28;20036;-65
2022/06/20 01:20:30;;;;;;;2.58;1.77;;;17.20;99.90;;;;;;4190810;28;20033;-67
2022/06/20 01:22:55;;;;;;;3.13;1.92;;;17.10;99.90;;;;;;4185042;28;20515;-65
2022/06/20 01:25:17;;;;;;;5.15;1.77;;;17.10;99.90;;;;;;4190926;28;20085;-64
2022/06/20 01:27:37;;;;;;;1.70;1.60;;;17.10;99.90;;;;;;4206944;28;20074;-63
2022/06/20 01:29:39;;;;;;;2.95;1.60;;;17.00;99.90;;;;;;4207288;28;20426;-66
2022/06/20 01:31:45;;;;;;;4.60;2.17;;;17.00;99.90;;;;;;4206986;28;20094;-66
2022/06/20 01:33:48;;;;;;;2.60;1.85;;;16.90;99.90;;;;;;4207464;28;20070;-63
2022/06/20 01:38:15;;;;;;;2.42;1.80;;;16.80;99.90;;;;;;4206037;28;20113;-63
2022/06/20 01:40:17;;;;;;;4.88;2.70;;;16.70;99.90;;;;;;4204893;28;20024;-67
2022/06/20 01:42:21;;;;;;;2.25;1.83;;;16.70;99.90;;;;;;4201630;28;20036;-65
2022/06/20 01:44:23;;;;;;;4.47;1.92;;;16.60;99.90;;;;;;4206687;28;20044;-67
2022/06/20 01:46:31;;;;;;;4.15;2.10;;;16.60;99.90;;;;;;4207501;28;20105;-67
2022/06/20 01:48:33;;;;;;;1.98;1.77;;;16.60;99.90;;;;;;4206113;28;20047;-63
2022/06/20 01:50:36;;;;;;;2.13;1.90;;;16.60;99.90;;;;;;4207711;28;20086;-65
2022/06/20 01:52:42;;;;;;;3.15;1.90;;;16.60;99.90;;;;;;4207788;28;20141;-64
2022/06/20 01:54:48;;;;;;;3.40;2.17;;;16.60;99.90;;;;;;4210075;28;20782;-63
2022/06/20 01:56:52;;;;;;;2.17;1.83;;;16.50;99.90;;;;;;4204660;28;20039;-62
2022/06/20 01:59:00;;;;;;;4.10;1.77;;;16.50;99.90;;;;;;4204307;28;20048;-65
2022/06/20 02:01:03;;;;;;;2.22;1.83;;;16.50;99.90;;;;;;4204598;28;20060;-65
2022/06/20 02:03:08;;;;;;;4.40;1.85;;;16.40;99.90;;;;;;4194693;28;20101;-64
2022/06/20 02:05:15;;;;;;;4.18;2.30;;;16.40;99.90;;;;;;4191380;28;20048;-63
2022/06/20 02:07:16;;;;;;;2.97;2.05;;;16.30;99.90;;;;;;4205984;28;20024;-63
2022/06/20 02:09:17;;;;;;;2.33;1.73;;;16.40;99.90;;;;;;4204225;28;20373;-62
2022/06/20 02:11:26;;;;;;;1.85;1.63;;;16.30;99.90;;;;;;4207900;28;20650;-66
2022/06/20 02:13:29;;;;;;;7.75;2.28;;;16.30;99.90;;;;;;4196098;28;20028;-65
2022/06/20 02:15:32;;;;;;;2.72;2.15;;;16.30;99.90;;;;;;4189459;28;20040;-67
2022/06/20 02:17:39;;;;;;;4.30;1.92;;;16.30;99.90;;;;;;4201568;28;20385;-64
2022/06/20 02:19:47;;;;;;;4.43;1.80;;;16.30;99.90;;;;;;4204952;28;20032;-63
2022/06/20 02:21:49;;;;;;;4.38;2.10;;;16.30;99.90;;;;;;4204127;28;20028;-66
2022/06/20 02:23:55;;;;;;;3.80;1.90;;;16.30;99.90;;;;;;4206551;28;20032;-63
2022/06/20 02:25:58;;;;;;;2.50;1.83;;;16.30;99.90;;;;;;4206091;28;20043;-65
2022/06/20 02:28:08;;;;;;;2.53;2.15;;;16.20;99.90;;;;;;4201487;28;20109;-62
2022/06/20 02:30:11;;;;;;;6.40;2.03;;;16.20;99.90;;;;;;4197062;28;20056;-67
2022/06/20 02:32:18;;;;;;;3.20;2.00;;;16.20;99.90;;;;;;4198437;28;20090;-64
2022/06/20 02:34:22;;;;;;;2.63;2.10;;;16.20;99.90;;;;;;4189788;28;20029;-63
2022/06/20 02:36:24;;;;;;;4.63;2.28;;;16.20;99.90;;;;;;4200569;28;20077;-63
2022/06/20 02:38:26;;;;;;;2.45;2.13;;;16.20;99.90;;;;;;4207060;28;20081;-64
2022/06/20 02:40:29;;;;;;;3.17;2.17;;;16.20;99.90;;;;;;4205852;28;20527;-64
2022/06/20 02:42:45;;;;;;;1.80;1.70;;;16.20;99.90;;;;;;4205280;28;20109;-66
2022/06/20 02:44:48;;;;;;;2.20;1.95;;;16.30;99.90;;;;;;4205179;28;20074;-66
2022/06/20 02:46:51;;;;;;;6.78;2.17;;;16.30;99.90;;;;;;4206472;28;20028;-64
2022/06/20 02:48:54;;;;;;;3.30;1.90;;;16.40;99.90;;;;;;4205316;28;20040;-63
2022/06/20 02:51:02;;;;;;;3.38;2.03;;;16.50;99.90;;;;;;4205249;28;20044;-64
2022/06/20 02:53:12;;;;;;;4.30;2.00;;;16.70;99.90;;;;;;4202400;28;20105;-63
2022/06/20 02:55:16;;;;;;;2.35;1.80;;;16.80;99.90;;;;;;4201766;28;20032;-63
2022/06/20 02:57:38;;;;;;;2.50;2.10;;;17.00;99.90;;;;;;4190125;28;20082;-62
2022/06/20 02:59:48;;;;;;;2.88;1.85;;;17.20;99.90;;;;;;4206307;28;20040;-65
2022/06/20 03:02:06;;;;;;;3.03;1.55;;;17.30;99.90;;;;;;4173609;28;20056;-63
2022/06/20 03:04:10;;;;;;;2.72;2.00;;;17.50;99.90;;;;;;4206627;28;20613;-64
2022/06/20 03:06:24;;;;;;;4.13;2.08;;;17.70;99.90;;;;;;4203668;28;20086;-66
2022/06/20 03:08:26;;;;;;;2.92;1.88;;;17.90;99.90;;;;;;4173310;28;20095;-63
2022/06/20 03:10:38;;;;;;;10.02;2.40;;;18.10;99.90;;;;;;4191895;28;20040;-64
2022/06/20 03:12:39;;;;;;;3.22;2.55;;;18.30;99.90;;;;;;4207256;28;20446;-64
2022/06/20 03:14:45;;;;;;;4.80;2.30;;;18.40;99.90;;;;;;4205638;28;20480;-63
2022/06/20 03:16:46;;;;;;;5.82;2.85;;;18.60;99.90;;;;;;4189461;28;20029;-63
2022/06/20 03:18:50;;;;;;;4.15;1.98;;;18.70;99.90;;;;;;4181205;28;20137;-67
2022/06/20 03:20:51;;;;;;;2.15;1.88;;;19.00;99.90;;;;;;4201955;28;20078;-65
2022/06/20 03:23:09;;;;;;;4.10;2.10;;;19.20;99.90;;;;;;4194208;28;20085;-62
2022/06/20 03:25:13;;;;;;;5.97;2.03;;;19.40;99.90;;;;;;4204864;28;20048;-63
2022/06/20 03:27:20;;;;;;;4.45;1.70;;;19.70;99.90;;;;;;4203656;28;20485;-64
2022/06/20 03:29:25;;;;;;;3.63;2.03;;;19.90;99.90;;;;;;4197094;28;20500;-64
2022/06/20 03:31:26;;;;;;;4.47;2.80;;;20.10;99.90;;;;;;4198629;28;20636;-63
2022/06/20 03:33:28;;;;;;;9.60;2.42;;;20.10;99.90;;;;;;4196747;28;20432;-64
2022/06/20 03:35:30;;;;;;;6.18;2.80;;;20.10;99.90;;;;;;4198330;28;20426;-64
2022/06/20 03:37:32;;;;;;;6.30;2.47;;;20.30;99.90;;;;;;4204653;28;20036;-68
2022/06/20 03:39:34;;;;;;;13.43;2.53;;;20.40;99.90;;;;;;4203595;28;20031;-63
2022/06/20 03:41:36;;;;;;;7.00;3.00;;;20.50;99.90;;;;;;4192279;28;20028;-63
2022/06/20 03:43:39;;;;;;;10.48;3.53;;;20.80;99.90;;;;;;4203034;28;20044;-64
2022/06/20 03:45:49;;;;;;;11.20;2.90;;;21.00;99.90;;;;;;4195955;28;20032;-67
2022/06/20 03:48:00;;;;;;;5.53;2.63;;;21.30;99.90;;;;;;4203276;28;20761;-64
2022/06/20 03:50:28;;;;;;;11.77;2.60;;;21.50;99.90;;;;;;4198610;28;20024;-65
2022/06/20 03:52:42;;;;;;;4.80;2.83;;;21.90;99.90;;;;;;4206013;28;20121;-63
2022/06/20 03:54:49;;;;;;;11.50;3.50;;;22.30;99.90;;;;;;4184215;28;20028;-63
2022/06/20 03:57:07;;;;;;;7.75;3.35;;;22.30;99.90;;;;;;4198896;28;20028;-64
2022/06/20 03:59:16;;;;;;;22.23;3.63;;;22.10;99.90;;;;;;4208763;28;20135;-63
2022/06/20 04:01:31;;;;;;;9.82;3.88;;;22.60;99.90;;;;;;4197443;28;20060;-63
2022/06/20 04:03:51;;;;;;;8.98;2.60;;;22.80;99.70;;;;;;4194385;28;20025;-67
2022/06/20 04:06:11;;;;;;;11.63;2.83;;;22.70;99.40;;;;;;4207930;28;20074;-63
2022/06/20 04:08:19;;;;;;;11.60;3.20;;;22.90;99.50;;;;;;4208629;28;20053;-64
2022/06/20 04:12:53;;;;;;;8.52;2.85;;;23.10;99.10;;;;;;4192591;28;20066;-68
2022/06/20 04:15:07;;;;;;;17.88;4.88;;;23.30;99.00;;;;;;4191016;28;20473;-63
2022/06/20 04:19:40;;;;;;;15.82;3.72;;;24.40;97.40;;;;;;4202182;28;20059;-66
2022/06/20 04:22:01;;;;;;;11.50;3.47;;;25.10;96.50;;;;;;4192983;28;20439;-65
2022/06/20 04:24:23;;;;;;;3.67;2.88;;;25.10;95.20;;;;;;4190848;28;20117;-65
2022/06/20 04:26:39;;;;;;;8.02;2.95;;;25.00;95.40;;;;;;4179384;28;20033;-64
2022/06/20 04:28:49;;;;;;;21.10;3.58;;;25.30;95.40;;;;;;4207568;28;20105;-62
2022/06/20 04:31:03;;;;;;;9.80;3.20;;;25.70;94.80;;;;;;4208710;28;20028;-66
2022/06/20 04:33:13;;;;;;;14.15;3.60;;;25.80;94.50;;;;;;4207604;28;20036;-65
2022/06/20 04:35:27;;;;;;;13.40;3.20;;;25.90;94.50;;;;;;4208848;28;20073;-63
2022/06/20 04:37:49;;;;;;;5.90;2.83;;;26.00;93.90;;;;;;4205775;28;20028;-62
2022/06/20 04:39:55;;;;;;;6.20;2.05;;;26.40;93.50;;;;;;4206222;28;20450;-63
2022/06/20 04:42:04;;;;;;;9.00;1.83;;;26.50;92.60;;;;;;4207913;28;20032;-66
2022/06/20 04:44:17;;;;;;;7.30;2.72;;;26.60;92.50;;;;;;4192154;28;20102;-65
2022/06/20 04:46:39;;;;;;;2.40;1.95;;;27.10;92.10;;;;;;4191195;28;20032;-64
2022/06/20 04:48:40;;;;;;;6.32;2.20;;;27.50;91.10;;;;;;4178344;28;20036;-63
2022/06/20 04:50:47;;;;;;;3.78;1.58;;;27.70;90.70;;;;;;4192347;28;20726;-64
2022/06/20 04:52:50;;;;;;;5.93;1.65;;;28.10;90.10;;;;;;4191088;28;20406;-65
2022/06/20 04:54:53;;;;;;;2.38;1.45;;;28.10;89.20;;;;;;4189744;28;20045;-64
2022/06/20 04:56:56;;;;;;;2.60;1.27;;;28.40;88.50;;;;;;4191703;28;20086;-64
2022/06/20 04:59:09;;;;;;;5.07;2.08;;;28.90;87.30;;;;;;4207025;28;20062;-65
2022/06/20 05:01:11;;;;;;;4.45;1.83;;;29.30;84.50;;;;;;4201998;28;20094;-64
2022/06/20 05:03:16;;;;;;;1.42;1.15;;;29.40;84.80;;;;;;4189896;28;20044;-64
2022/06/20 05:05:21;;;;;;;4.80;1.98;;;29.10;83.30;;;;;;4191504;28;20109;-64
2022/06/20 05:07:33;;;;;;;8.52;3.17;;;29.10;83.80;;;;;;4190570;28;20098;-64
2022/06/20 05:10:00;;;;;;;7.30;2.03;;;29.10;83.50;;;;;;4204993;28;20044;-63
2022/06/20 05:12:28;;;;;;;9.63;1.98;;;29.40;81.90;;;;;;4175794;28;20037;-63
2022/06/20 05:14:36;;;;;;;3.40;1.70;;;29.70;80.70;;;;;;4195114;28;20542;-63
2022/06/20 05:16:43;;;;;;;2.30;1.10;;;29.70;81.40;;;;;;4190132;28;20033;-63
2022/06/20 05:18:48;;;;;;;1.70;1.30;;;29.70;80.60;;;;;;4205927;28;20089;-63
2022/06/20 05:20:53;;;;;;;2.13;1.00;;;29.80;80.00;;;;;;4206342;28;20065;-64
2022/06/20 05:23:11;;;;;;;1.38;1.20;;;30.10;79.80;;;;;;4205965;28;20101;-64
2022/06/20 05:25:21;;;;;;;2.85;1.50;;;30.60;78.40;;;;;;4197683;28;20101;-63
2022/06/20 05:27:29;;;;;;;3.25;1.13;;;30.90;76.60;;;;;;4206170;28;20089;-65
2022/06/20 05:29:34;;;;;;;2.33;1.38;;;30.50;77.00;;;;;;4201471;28;20605;-64
2022/06/20 05:31:40;;;;;;;3.63;1.45;;;30.60;76.50;;;;;;4190377;28;20432;-64
2022/06/20 05:33:45;;;;;;;2.85;1.13;;;31.00;76.10;;;;;;4189906;28;20036;-63
2022/06/20 05:35:53;;;;;;;6.43;1.88;;;31.00;75.80;;;;;;4190524;28;20121;-65
2022/06/20 05:38:03;;;;;;;6.38;2.35;;;30.40;75.80;;;;;;4178223;28;20032;-63
2022/06/20 05:40:12;;;;;;;2.83;1.58;;;30.50;76.00;;;;;;4187954;28;20133;-64
2022/06/20 05:42:16;;;;;;;4.75;1.40;;;30.70;75.30;;;;;;4189046;28;20542;-65
2022/06/20 05:44:17;;;;;;;22.70;7.43;;;30.80;74.90;;;;;;4190819;28;20105;-67
2022/06/20 05:46:36;;;;;;;5.80;2.45;;;31.00;74.70;;;;;;4189640;28;20036;-66
2022/06/20 05:48:44;;;;;;;1.80;1.35;;;31.40;73.10;;;;;;4205528;28;20052;-64
2022/06/20 05:50:57;;;;;;;6.57;1.30;;;31.90;73.20;;;;;;4196467;28;20104;-64
2022/06/20 05:53:01;;;;;;;1.35;1.25;;;31.70;72.00;;;;;;4189817;28;20049;-65
2022/06/20 05:55:17;;;;;;;3.85;1.45;;;31.20;72.40;;;;;;4204443;28;20140;-66
2022/06/20 05:57:24;;;;;;;6.70;1.35;;;30.60;72.10;;;;;;4200175;28;20044;-65
2022/06/20 05:59:25;;;;;;;9.73;2.38;;;30.30;73.30;;;;;;4189192;28;20094;-64
2022/06/20 06:01:34;;;;;;;4.80;2.17;;;30.80;73.30;;;;;;4200814;28;20040;-65
2022/06/20 06:04:00;;;;;;;4.15;1.70;;;31.50;71.80;;;;;;4206099;28;20048;-64
2022/06/20 06:06:07;;;;;;;6.18;1.95;;;31.80;71.30;;;;;;4192204;28;20041;-66
2022/06/20 06:08:11;;;;;;;9.88;1.70;;;31.60;71.70;;;;;;4200136;28;20048;-63
2022/06/20 06:10:33;;;;;;;7.30;1.58;;;30.60;72.50;;;;;;4200948;28;20032;-64
2022/06/20 06:12:42;;;;;;;6.63;1.58;;;30.00;73.70;;;;;;4189502;28;20117;-65
2022/06/20 06:14:50;;;;;;;5.95;2.00;;;29.60;74.50;;;;;;4190366;28;20098;-64
2022/06/20 06:17:01;;;;;;;6.07;2.35;;;29.30;75.40;;;;;;4204943;28;20093;-64
2022/06/20 06:19:14;;;;;;;15.32;2.50;;;29.10;75.80;;;;;;4204779;28;20461;-62
2022/06/20 06:21:16;;;;;;;10.85;2.38;;;28.90;76.00;;;;;;4204976;28;20036;-64
2022/06/20 06:23:17;;;;;;;5.88;2.20;;;28.70;76.20;;;;;;4205408;28;20093;-68
2022/06/20 06:25:33;;;;;;;6.97;2.25;;;28.50;76.60;;;;;;4204274;28;20073;-64
2022/06/20 06:27:35;;;;;;;8.00;2.13;;;28.40;76.80;;;;;;4202752;28;20512;-65
2022/06/20 06:29:43;;;;;;;10.10;2.35;;;28.60;77.00;;;;;;4205508;28;20032;-65
2022/06/20 06:31:47;;;;;;;16.27;3.22;;;28.40;77.10;;;;;;4192132;28;20033;-65
2022/06/20 06:34:00;;;;;;;6.78;2.58;;;28.40;77.30;;;;;;4188761;28;20087;-65
2022/06/20 06:36:10;;;;;;;15.07;2.70;;;28.20;77.50;;;;;;4190286;28;20530;-65
2022/06/20 06:38:19;;;;;;;6.50;2.13;;;27.90;77.80;;;;;;4190156;28;20041;-68
2022/06/20 06:40:46;;;;;;;9.50;2.40;;;27.40;78.80;;;;;;4176014;28;20099;-69
2022/06/20 06:42:47;;;;;;;7.05;2.40;;;27.40;79.30;;;;;;4172882;28;20033;-69
2022/06/20 06:44:51;;;;;;;9.05;2.30;;;27.50;79.00;;;;;;4174194;28;20037;-67
2022/06/20 06:46:53;;;;;;;11.43;2.97;;;27.90;78.70;;;;;;4172800;28;20033;-70
2022/06/20 06:49:19;;;;;;;8.93;2.22;;;28.20;78.50;;;;;;4205263;28;20423;-71
2022/06/20 06:51:46;;;;;;;15.35;2.65;;;28.80;78.50;;;;;;4178489;28;20029;-68
2022/06/20 06:54:02;;;;;;;12.50;2.80;;;29.20;77.20;;;;;;4206519;28;20032;-70
2022/06/20 06:56:16;;;;;;;7.82;2.13;;;29.30;77.00;;;;;;4172641;28;20048;-66
2022/06/20 06:58:41;;;;;;;10.40;2.50;;;29.40;76.30;;;;;;4179291;28;20024;-65
2022/06/20 07:00:59;;;;;;;10.52;2.60;;;29.30;76.30;;;;;;4190057;28;20044;-67
2022/06/20 07:03:08;;;;;;;7.85;2.50;;;29.10;76.60;;;;;;4190522;28;20597;-66
2022/06/20 07:05:19;;;;;;;15.95;2.40;;;29.10;76.90;;;;;;4189979;28;20052;-67
2022/06/20 07:07:27;;;;;;;5.35;2.45;;;29.30;76.60;;;;;;4192591;28;20032;-66
2022/06/20 07:09:33;;;;;;;5.15;1.88;;;29.20;76.40;;;;;;4188462;28;20066;-66
2022/06/20 07:11:40;;;;;;;6.93;3.03;;;29.40;76.30;;;;;;4189081;28;20024;-66
2022/06/20 07:13:59;;;;;;;9.15;2.25;;;29.20;75.90;;;;;;4190070;28;20028;-64
2022/06/20 07:16:03;;;;;;;8.90;2.13;;;29.20;76.00;;;;;;4188882;28;20554;-67
2022/06/20 07:18:12;;;;;;;5.35;2.55;;;29.10;76.50;;;;;;4190323;28;20028;-67
2022/06/20 07:20:14;;;;;;;11.63;2.37;;;28.90;76.30;;;;;;4194160;28;20627;-66
2022/06/20 07:22:17;;;;;;;8.82;3.10;;;28.60;76.70;;;;;;4209174;28;20272;-66
2022/06/20 07:24:22;;;;;;;8.15;1.85;;;28.50;77.20;;;;;;4208982;28;20031;-65
2022/06/20 07:26:28;;;;;;;8.77;2.00;;;28.60;77.10;;;;;;4209001;28;20066;-65
2022/06/20 07:28:46;;;;;;;6.53;2.60;;;28.60;76.70;;;;;;4194855;28;20406;-65
2022/06/20 07:30:52;;;;;;;10.63;1.85;;;28.40;76.60;;;;;;4192333;28;20102;-65
2022/06/20 07:32:59;;;;;;;6.15;2.15;;;28.30;77.00;;;;;;4191351;28;20046;-65
2022/06/20 07:35:05;;;;;;;2.47;1.90;;;28.10;77.50;;;;;;4191940;28;20838;-66
2022/06/20 07:37:31;;;;;;;8.10;2.40;;;27.90;78.00;;;;;;4192414;28;20040;-68
2022/06/20 07:39:44;;;;;;;4.65;1.90;;;28.00;78.40;;;;;;4191473;28;20098;-65
2022/06/20 07:41:53;;;;;;;9.82;1.60;;;28.30;78.00;;;;;;4191843;28;20032;-66
2022/06/20 07:44:14;;;;;;;7.03;1.80;;;28.10;78.20;;;;;;4192783;28;20101;-68
2022/06/20 07:46:22;;;;;;;6.78;2.15;;;28.00;78.80;;;;;;4191749;28;20086;-69
2022/06/20 07:48:33;;;;;;;4.05;1.77;;;28.00;79.10;;;;;;4192832;28;20033;-70
2022/06/20 07:50:39;;;;;;;2.53;1.58;;;28.00;79.20;;;;;;4191514;28;20406;-68
2022/06/20 07:52:47;;;;;;;4.57;1.85;;;28.10;78.80;;;;;;4192317;28;20082;-68
2022/06/20 07:54:54;;;;;;;4.13;1.80;;;28.10;78.80;;;;;;4191820;28;20105;-70
2022/06/20 07:57:02;;;;;;;8.25;2.10;;;28.20;79.10;;;;;;4190466;28;20494;-68
2022/06/20 07:59:15;;;;;;;5.60;2.03;;;28.50;79.00;;;;;;4191599;28;20117;-67
2022/06/20 08:01:30;;;;;;;5.93;1.88;;;28.50;78.20;;;;;;4190781;28;20048;-68
2022/06/20 08:03:43;;;;;;;6.72;2.33;;;28.40;78.10;;;;;;4190236;28;20060;-65
2022/06/20 08:06:03;;;;;;;4.32;1.95;;;28.30;78.40;;;;;;4192218;28;20142;-66
2022/06/20 08:08:13;;;;;;;13.23;2.10;;;28.40;78.20;;;;;;4191201;28;20048;-64
2022/06/20 08:10:30;;;;;;;4.38;1.70;;;28.80;77.60;;;;;;4192563;28;20396;-68
2022/06/20 08:12:54;;;;;;;5.05;1.50;;;29.00;77.30;;;;;;4190675;28;20109;-65
2022/06/20 08:15:04;;;;;;;2.38;1.45;;;28.90;76.30;;;;;;4192406;28;20044;-65
2022/06/20 08:17:08;;;;;;;6.22;1.38;;;28.60;77.10;;;;;;4190673;28;20028;-66
2022/06/20 08:19:09;;;;;;;2.53;1.17;;;28.50;77.20;;;;;;4191748;28;20033;-64
2022/06/20 08:21:23;;;;;;;3.15;1.30;;;28.40;77.00;;;;;;4190632;28;20469;-67
2022/06/20 08:23:32;;;;;;;3.42;1.40;;;28.10;77.10;;;;;;4191707;28;20113;-67
2022/06/20 08:25:40;;;;;;;1.98;1.20;;;28.10;77.30;;;;;;4190582;28;20106;-67
2022/06/20 08:27:44;;;;;;;4.18;1.33;;;28.20;77.40;;;;;;4191942;28;20032;-68
2022/06/20 08:29:57;;;;;;;3.83;1.83;;;28.50;77.30;;;;;;4189886;28;20024;-67
2022/06/20 08:32:24;;;;;;;8.23;1.55;;;28.70;77.20;;;;;;4190531;28;20066;-66
2022/06/20 08:34:33;;;;;;;5.95;1.80;;;28.90;76.90;;;;;;4190715;28;20024;-66
2022/06/20 08:36:47;;;;;;;7.25;1.50;;;29.10;75.90;;;;;;4191502;28;20050;-67
2022/06/20 08:39:20;;;;;;;1.77;1.10;;;28.90;74.80;;;;;;4190407;28;20555;-65
2022/06/20 08:41:43;;;;;;;1.50;1.40;;;28.90;74.80;;;;;;4174929;28;20049;-68
2022/06/20 08:44:04;;;;;;;8.02;3.17;;;29.10;74.90;;;;;;4190858;28;20546;-65
2022/06/20 08:46:31;;;;;;;2.47;1.42;;;29.30;73.80;;;;;;4191228;28;20032;-65
2022/06/20 08:48:44;;;;;;;6.18;1.40;;;29.30;74.50;;;;;;4190601;28;20447;-64
2022/06/20 08:51:07;;;;;;;6.05;2.20;;;29.20;73.10;;;;;;4190357;28;20032;-66
2022/06/20 08:53:48;;;;;;;4.15;1.20;;;29.30;73.60;;;;;;4191238;28;20024;-64
2022/06/20 08:56:10;;;;;;;1.80;1.27;;;29.10;70.10;;;;;;4190067;28;20164;-64
2022/06/20 08:58:17;;;;;;;3.78;1.10;;;28.90;71.20;;;;;;4191538;28;20028;-64
2022/06/20 09:00:43;;;;;;;2.80;1.00;;;28.80;70.80;;;;;;4190194;28;20109;-64
2022/06/20 09:02:54;;;;;;;2.53;1.33;;;28.80;70.20;;;;;;4191343;28;20415;-64
2022/06/20 09:05:08;;;;;;;4.97;1.60;;;29.00;69.70;;;;;;4189791;28;20447;-66
2022/06/20 09:07:41;;;;;;;2.85;1.48;;;28.90;71.00;;;;;;4191126;28;20054;-67
2022/06/20 09:10:01;;;;;;;1.20;1.10;;;29.30;69.40;;;;;;4190356;28;20500;-65
2022/06/20 09:12:11;;;;;;;;;;;29.30;69.70;;;;;;4191892;28;20033;-66
2022/06/20 09:14:38;;;;;;;3.65;1.00;;;29.00;69.00;;;;;;4190829;28;20253;-67
2022/06/20 09:16:59;;;;;;;9.63;1.40;;;28.70;69.20;;;;;;4190828;28;20082;-66
2022/06/20 09:19:12;;;;;;;3.03;1.10;;;28.60;69.10;;;;;;4190008;28;20066;-66
2022/06/20 09:21:25;;;;;;;3.22;1.00;;;28.50;69.80;;;;;;4190184;28;20085;-65
2022/06/20 09:23:36;;;;;;;9.18;1.40;;;28.50;69.40;;;;;;4190186;28;20576;-68
2022/06/20 09:26:04;;;;;;;1.35;1.20;;;28.40;70.10;;;;;;4189605;28;20032;-65
2022/06/20 09:28:30;;;;;;;0.95;0.90;;;28.40;70.30;;;;;;4189779;28;20074;-68
2022/06/20 09:30:48;;;;;;;4.13;1.25;;;28.60;70.50;;;;;;4189836;28;20032;-66
2022/06/20 09:33:01;;;;;;;7.95;1.55;;;29.00;69.80;;;;;;4191210;28;20477;-65
2022/06/20 09:35:12;;;;;;;4.32;1.00;;;29.10;69.80;;;;;;4189086;28;20020;-66
2022/06/20 09:37:57;;;;;;;2.22;1.10;;;29.30;69.90;;;;;;4190499;28;20066;-67
2022/06/20 09:40:15;;;;;;;1.15;1.05;;;29.20;69.70;;;;;;4180203;28;20098;-65
2022/06/20 09:42:28;;;;;;;1.10;1.00;;;29.50;70.00;;;;;;4190401;28;20473;-65
2022/06/20 09:45:03;;;;;;;1.65;1.20;;;29.70;70.10;;;;;;4188171;28;20048;-71
2022/06/20 09:47:33;;;;;;;1.95;1.02;;;30.00;69.40;;;;;;4188676;28;20036;-64
2022/06/20 09:49:39;;;;;;;;;;;30.10;68.30;;;;;;4190978;28;20412;-66
2022/06/20 09:51:54;;;;;;;1.77;0.90;;;30.10;68.10;;;;;;4189601;28;20405;-65
2022/06/20 09:54:26;;;;;;;1.52;1.05;;;30.10;68.30;;;;;;4190397;28;20032;-67
2022/06/20 09:56:45;;;;;;;3.00;1.10;;;30.10;66.90;;;;;;4189064;28;20085;-65
2022/06/20 09:59:19;;;;;;;3.13;1.55;;;30.00;66.20;;;;;;4190878;28;20481;-65
2022/06/20 10:01:41;;;;;;;3.15;1.05;;;29.80;67.10;;;;;;4187869;28;20463;-65
2022/06/20 10:03:57;;;;;;;1.70;0.88;;;29.50;67.10;;;;;;4190532;28;20109;-64
2022/06/20 10:06:10;;;;;;;2.45;1.35;;;29.40;67.00;;;;;;4188882;28;20090;-65
2022/06/20 10:08:40;;;;;;;2.15;1.25;;;29.50;67.60;;;;;;4190459;28;20889;-64
2022/06/20 10:10:51;;;;;;;2.40;1.10;;;29.60;66.30;;;;;;4189432;28;20094;-65
2022/06/20 10:12:58;;;;;;;1.55;1.20;;;29.80;67.00;;;;;;4190038;28;20040;-64
2022/06/20 10:15:24;;;;;;;6.40;1.40;;;29.90;66.40;;;;;;4189853;28;21509;-64
2022/06/20 10:18:03;;;;;;;2.10;1.05;;;30.00;66.50;;;;;;4189556;28;20020;-65
2022/06/20 10:20:04;;;;;;;2.67;0.80;;;29.90;63.20;;;;;;4168377;28;20090;-65
2022/06/20 10:22:19;;;;;;;4.57;1.20;;;29.60;64.90;;;;;;4189038;28;20101;-65
2022/06/20 10:24:52;;;;;;;4.53;1.60;;;29.50;64.30;;;;;;4190407;28;20071;-67
2022/06/20 10:27:31;;;;;;;2.40;0.93;;;29.60;65.20;;;;;;4161763;28;20110;-64
2022/06/20 10:30:01;;;;;;;0.85;0.80;;;29.90;64.90;;;;;;4190403;28;20013;-64
2022/06/20 10:32:08;;;;;;;1.02;0.75;;;29.90;65.10;;;;;;4189510;28;20040;-66
2022/06/20 10:34:33;;;;;;;3.35;1.05;;;30.00;64.20;;;;;;4190314;28;20025;-67
2022/06/20 10:36:49;;;;;;;1.42;1.00;;;30.10;63.80;;;;;;4189644;28;20520;-69
2022/06/20 10:39:10;;;;;;;1.50;0.75;;;30.30;63.10;;;;;;4189397;28;20477;-67
2022/06/20 10:41:31;;;;;;;0.60;0.60;;;30.40;62.70;;;;;;4189808;28;20041;-65
2022/06/20 10:43:52;;;;;;;2.38;0.60;;;30.40;62.30;;;;;;4189238;28;20048;-65
2022/06/20 10:45:58;;;;;;;4.00;1.10;;;30.50;62.90;;;;;;4190294;28;20044;-66
2022/06/20 10:47:59;;;;;;;5.57;1.10;;;30.60;63.60;;;;;;4190741;28;20024;-69
2022/06/20 10:50:24;;;;;;;3.08;0.95;;;30.50;63.80;;;;;;4205727;28;20065;-66
2022/06/20 10:52:51;;;;;;;0.90;0.80;;;30.50;63.50;;;;;;4201304;28;20097;-65
2022/06/20 10:55:11;;;;;;;1.08;0.98;;;30.50;63.00;;;;;;4210166;28;20039;-64
2022/06/20 10:57:54;;;;;;;1.92;1.20;;;30.40;63.20;;;;;;4208051;28;20085;-63
2022/06/20 11:00:11;;;;;;;1.00;0.90;;;30.30;62.00;;;;;;4189824;28;20101;-63
2022/06/20 11:02:20;;;;;;;1.58;0.70;;;30.40;61.90;;;;;;4204020;28;20052;-64
2022/06/20 11:04:25;;;;;;;3.83;1.25;;;30.50;63.00;;;;;;4191774;28;20048;-65
2022/06/20 11:07:03;;;;;;;2.83;1.10;;;30.60;63.20;;;;;;4190755;28;20086;-66
2022/06/20 11:09:30;;;;;;;1.15;0.70;;;30.60;62.80;;;;;;4191356;28;20032;-64
2022/06/20 11:12:12;;;;;;;2.40;1.00;;;30.60;62.30;;;;;;4192650;28;20020;-65
2022/06/20 11:14:19;;;;;;;2.25;0.95;;;30.40;62.30;;;;;;4206754;28;20036;-65
2022/06/20 11:16:34;;;;;;;1.45;1.33;;;30.00;63.90;;;;;;4195757;28;20490;-65
2022/06/20 11:18:44;;;;;;;4.28;2.17;;;30.00;63.50;;;;;;4191967;28;20479;-65
2022/06/20 11:21:09;;;;;;;5.05;1.10;;;30.00;63.60;;;;;;4192855;28;20036;-65
2022/06/20 11:23:26;;;;;;;8.38;1.75;;;30.10;63.20;;;;;;4193134;28;20137;-65
2022/06/20 11:25:54;;;;;;;2.28;1.20;;;30.20;63.70;;;;;;4193007;28;20041;-66
2022/06/20 11:28:19;;;;;;;2.05;1.42;;;30.30;63.90;;;;;;4191830;28;20021;-66
2022/06/20 11:30:36;;;;;;;1.33;1.05;;;30.40;63.70;;;;;;4192762;28;20058;-67